sensor_id;sensor_type;location;lat;lon;timestamp;P1;durP1;ratioP1;P2;durP2;ratioP2
323;SDS011;149;51.094;17.002;2022-07-12T00:02:08;5.68;;;2.97;;
323;SDS011;149;51.094;17.002;2022-07-12T00:04:36;2.92;;;2.70;;
323;SDS011;149;51.094;17.002;2022-07-12T00:07:03;4.50;;;3.10;;
323;SDS011;149;51.094;17.002;2022-07-12T00:09:31;2.95;;;2.75;;
323;SDS011;149;51.094;17.002;2022-07-12T00:11:58;3.67;;;3.38;;
323;SDS011;149;51.094;17.002;2022-07-12T00:14:25;2.97;;;2.78;;
323;SDS011;149;51.094;17.002;2022-07-12T00:16:52;4.22;;;3.83;;
323;SDS011;149;51.094;17.002;2022-07-12T00:19:20;3.30;;;3.00;;
323;SDS011;149;51.094;17.002;2022-07-12T00:21:48;3.55;;;3.20;;
323;SDS011;149;51.094;17.002;2022-07-12T00:24:15;4.40;;;2.83;;
323;SDS011;149;51.094;17.002;2022-07-12T00:26:42;5.05;;;3.13;;
323;SDS011;149;51.094;17.002;2022-07-12T00:29:09;3.45;;;2.90;;
323;SDS011;149;51.094;17.002;2022-07-12T00:31:37;5.97;;;3.35;;
323;SDS011;149;51.094;17.002;2022-07-12T00:34:04;3.90;;;3.60;;
323;SDS011;149;51.094;17.002;2022-07-12T00:36:31;3.00;;;2.70;;
323;SDS011;149;51.094;17.002;2022-07-12T00:38:58;3.53;;;2.95;;
323;SDS011;149;51.094;17.002;2022-07-12T00:41:26;5.00;;;3.67;;
323;SDS011;149;51.094;17.002;2022-07-12T00:43:53;3.50;;;3.22;;
323;SDS011;149;51.094;17.002;2022-07-12T00:46:21;3.03;;;2.83;;
323;SDS011;149;51.094;17.002;2022-07-12T00:48:50;3.53;;;3.22;;
323;SDS011;149;51.094;17.002;2022-07-12T00:51:18;3.60;;;3.30;;
323;SDS011;149;51.094;17.002;2022-07-12T00:53:45;2.35;;;2.20;;
323;SDS011;149;51.094;17.002;2022-07-12T00:56:13;3.47;;;3.17;;
323;SDS011;149;51.094;17.002;2022-07-12T00:58:41;5.15;;;2.92;;
323;SDS011;149;51.094;17.002;2022-07-12T01:01:09;3.90;;;2.75;;
323;SDS011;149;51.094;17.002;2022-07-12T01:03:37;5.18;;;3.40;;
323;SDS011;149;51.094;17.002;2022-07-12T01:06:05;6.50;;;3.60;;
323;SDS011;149;51.094;17.002;2022-07-12T01:08:34;3.80;;;2.97;;
323;SDS011;149;51.094;17.002;2022-07-12T01:11:01;3.60;;;3.30;;
323;SDS011;149;51.094;17.002;2022-07-12T01:13:29;3.55;;;3.33;;
323;SDS011;149;51.094;17.002;2022-07-12T01:15:57;3.17;;;2.75;;
323;SDS011;149;51.094;17.002;2022-07-12T01:18:25;4.13;;;3.00;;
323;SDS011;149;51.094;17.002;2022-07-12T01:20:54;3.63;;;2.60;;
323;SDS011;149;51.094;17.002;2022-07-12T01:23:22;4.95;;;2.58;;
323;SDS011;149;51.094;17.002;2022-07-12T01:25:51;4.22;;;2.95;;
323;SDS011;149;51.094;17.002;2022-07-12T01:28:18;7.90;;;2.97;;
323;SDS011;149;51.094;17.002;2022-07-12T01:30:47;2.78;;;2.58;;
323;SDS011;149;51.094;17.002;2022-07-12T01:33:15;6.78;;;3.00;;
323;SDS011;149;51.094;17.002;2022-07-12T01:35:43;3.05;;;2.75;;
323;SDS011;149;51.094;17.002;2022-07-12T01:38:13;2.70;;;2.50;;
323;SDS011;149;51.094;17.002;2022-07-12T01:40:40;2.55;;;2.35;;
323;SDS011;149;51.094;17.002;2022-07-12T01:43:08;4.55;;;2.83;;
323;SDS011;149;51.094;17.002;2022-07-12T01:45:35;2.70;;;2.50;;
323;SDS011;149;51.094;17.002;2022-07-12T01:48:03;4.93;;;3.15;;
323;SDS011;149;51.094;17.002;2022-07-12T01:50:30;5.25;;;3.13;;
323;SDS011;149;51.094;17.002;2022-07-12T01:52:58;5.30;;;2.78;;
323;SDS011;149;51.094;17.002;2022-07-12T01:55:29;2.80;;;2.60;;
323;SDS011;149;51.094;17.002;2022-07-12T01:57:58;3.03;;;2.55;;
323;SDS011;149;51.094;17.002;2022-07-12T02:00:26;5.30;;;2.72;;
323;SDS011;149;51.094;17.002;2022-07-12T02:02:54;3.50;;;2.92;;
323;SDS011;149;51.094;17.002;2022-07-12T02:05:22;2.92;;;2.72;;
323;SDS011;149;51.094;17.002;2022-07-12T02:07:49;3.95;;;2.65;;
323;SDS011;149;51.094;17.002;2022-07-12T02:10:18;3.13;;;2.92;;
323;SDS011;149;51.094;17.002;2022-07-12T02:12:45;3.58;;;3.28;;
323;SDS011;149;51.094;17.002;2022-07-12T02:15:12;5.13;;;3.85;;
323;SDS011;149;51.094;17.002;2022-07-12T02:17:40;6.70;;;3.22;;
323;SDS011;149;51.094;17.002;2022-07-12T02:20:08;5.90;;;4.57;;
323;SDS011;149;51.094;17.002;2022-07-12T02:22:39;4.18;;;3.72;;
323;SDS011;149;51.094;17.002;2022-07-12T02:25:06;4.80;;;3.80;;
323;SDS011;149;51.094;17.002;2022-07-12T02:27:34;4.05;;;3.35;;
323;SDS011;149;51.094;17.002;2022-07-12T02:30:01;4.65;;;2.50;;
323;SDS011;149;51.094;17.002;2022-07-12T02:32:29;3.75;;;2.85;;
323;SDS011;149;51.094;17.002;2022-07-12T02:34:56;5.28;;;2.85;;
323;SDS011;149;51.094;17.002;2022-07-12T02:37:24;5.18;;;3.30;;
323;SDS011;149;51.094;17.002;2022-07-12T02:39:51;2.45;;;2.30;;
323;SDS011;149;51.094;17.002;2022-07-12T02:42:39;6.22;;;2.75;;
323;SDS011;149;51.094;17.002;2022-07-12T02:45:06;3.25;;;2.78;;
323;SDS011;149;51.094;17.002;2022-07-12T02:47:36;7.05;;;3.90;;
323;SDS011;149;51.094;17.002;2022-07-12T02:50:04;3.85;;;3.10;;
323;SDS011;149;51.094;17.002;2022-07-12T02:52:33;4.65;;;4.20;;
323;SDS011;149;51.094;17.002;2022-07-12T02:55:00;3.38;;;3.08;;
323;SDS011;149;51.094;17.002;2022-07-12T02:57:28;3.15;;;2.75;;
323;SDS011;149;51.094;17.002;2022-07-12T02:59:56;3.92;;;3.53;;
323;SDS011;149;51.094;17.002;2022-07-12T03:02:23;3.78;;;2.80;;
323;SDS011;149;51.094;17.002;2022-07-12T03:04:50;3.78;;;3.47;;
323;SDS011;149;51.094;17.002;2022-07-12T03:07:18;5.70;;;3.50;;
323;SDS011;149;51.094;17.002;2022-07-12T03:09:45;3.42;;;3.13;;
323;SDS011;149;51.094;17.002;2022-07-12T03:12:13;2.88;;;2.67;;
323;SDS011;149;51.094;17.002;2022-07-12T03:14:40;3.78;;;3.00;;
323;SDS011;149;51.094;17.002;2022-07-12T03:17:07;5.13;;;3.42;;
323;SDS011;149;51.094;17.002;2022-07-12T03:19:34;2.90;;;2.53;;
323;SDS011;149;51.094;17.002;2022-07-12T03:22:01;5.38;;;3.00;;
323;SDS011;149;51.094;17.002;2022-07-12T03:24:29;3.67;;;3.38;;
323;SDS011;149;51.094;17.002;2022-07-12T03:26:56;3.55;;;2.70;;
323;SDS011;149;51.094;17.002;2022-07-12T03:29:24;3.28;;;2.97;;
323;SDS011;149;51.094;17.002;2022-07-12T03:31:51;4.75;;;3.80;;
323;SDS011;149;51.094;17.002;2022-07-12T03:34:18;7.85;;;3.22;;
323;SDS011;149;51.094;17.002;2022-07-12T03:36:45;3.10;;;2.90;;
323;SDS011;149;51.094;17.002;2022-07-12T03:39:12;3.35;;;3.05;;
323;SDS011;149;51.094;17.002;2022-07-12T03:41:39;3.83;;;1.95;;
323;SDS011;149;51.094;17.002;2022-07-12T03:44:07;5.88;;;2.70;;
323;SDS011;149;51.094;17.002;2022-07-12T03:46:34;2.70;;;2.15;;
323;SDS011;149;51.094;17.002;2022-07-12T03:49:01;2.80;;;2.30;;
323;SDS011;149;51.094;17.002;2022-07-12T03:51:28;5.10;;;3.08;;
323;SDS011;149;51.094;17.002;2022-07-12T03:53:55;2.75;;;2.10;;
323;SDS011;149;51.094;17.002;2022-07-12T03:56:23;2.78;;;1.92;;
323;SDS011;149;51.094;17.002;2022-07-12T03:59:08;3.22;;;1.80;;
323;SDS011;149;51.094;17.002;2022-07-12T04:01:36;2.10;;;1.90;;
323;SDS011;149;51.094;17.002;2022-07-12T04:04:04;2.35;;;1.70;;
323;SDS011;149;51.094;17.002;2022-07-12T04:06:31;3.25;;;1.80;;
323;SDS011;149;51.094;17.002;2022-07-12T04:08:58;2.85;;;1.45;;
323;SDS011;149;51.094;17.002;2022-07-12T04:11:25;2.15;;;1.50;;
323;SDS011;149;51.094;17.002;2022-07-12T04:13:52;2.85;;;1.50;;
323;SDS011;149;51.094;17.002;2022-07-12T04:16:19;3.20;;;2.00;;
323;SDS011;149;51.094;17.002;2022-07-12T04:18:47;6.60;;;3.35;;
323;SDS011;149;51.094;17.002;2022-07-12T04:21:14;1.92;;;1.83;;
323;SDS011;149;51.094;17.002;2022-07-12T04:23:41;3.33;;;2.08;;
323;SDS011;149;51.094;17.002;2022-07-12T04:26:08;2.75;;;1.85;;
323;SDS011;149;51.094;17.002;2022-07-12T04:28:36;7.73;;;2.20;;
323;SDS011;149;51.094;17.002;2022-07-12T04:31:03;5.13;;;2.27;;
323;SDS011;149;51.094;17.002;2022-07-12T04:33:31;8.10;;;2.27;;
323;SDS011;149;51.094;17.002;2022-07-12T04:35:58;5.07;;;1.70;;
323;SDS011;149;51.094;17.002;2022-07-12T04:38:26;4.83;;;2.57;;
323;SDS011;149;51.094;17.002;2022-07-12T04:40:53;3.07;;;2.73;;
323;SDS011;149;51.094;17.002;2022-07-12T04:43:20;2.60;;;2.40;;
323;SDS011;149;51.094;17.002;2022-07-12T04:45:50;2.90;;;1.70;;
323;SDS011;149;51.094;17.002;2022-07-12T04:48:18;4.70;;;2.93;;
323;SDS011;149;51.094;17.002;2022-07-12T04:50:45;3.93;;;2.50;;
323;SDS011;149;51.094;17.002;2022-07-12T04:53:12;4.77;;;2.20;;
323;SDS011;149;51.094;17.002;2022-07-12T04:55:39;6.00;;;2.60;;
323;SDS011;149;51.094;17.002;2022-07-12T04:58:06;2.97;;;2.63;;
323;SDS011;149;51.094;17.002;2022-07-12T05:00:34;2.43;;;2.20;;
323;SDS011;149;51.094;17.002;2022-07-12T05:03:01;5.10;;;2.30;;
323;SDS011;149;51.094;17.002;2022-07-12T05:05:28;2.43;;;1.70;;
323;SDS011;149;51.094;17.002;2022-07-12T05:07:55;5.80;;;2.27;;
323;SDS011;149;51.094;17.002;2022-07-12T05:10:22;3.90;;;2.17;;
323;SDS011;149;51.094;17.002;2022-07-12T05:12:49;1.80;;;1.70;;
323;SDS011;149;51.094;17.002;2022-07-12T05:15:17;1.83;;;1.73;;
323;SDS011;149;51.094;17.002;2022-07-12T05:17:45;3.53;;;2.60;;
323;SDS011;149;51.094;17.002;2022-07-12T05:20:12;9.17;;;2.50;;
323;SDS011;149;51.094;17.002;2022-07-12T05:22:39;6.87;;;2.67;;
323;SDS011;149;51.094;17.002;2022-07-12T05:25:08;3.03;;;2.63;;
323;SDS011;149;51.094;17.002;2022-07-12T05:27:35;2.23;;;1.57;;
323;SDS011;149;51.094;17.002;2022-07-12T05:30:03;5.27;;;2.23;;
323;SDS011;149;51.094;17.002;2022-07-12T05:32:31;3.93;;;1.77;;
323;SDS011;149;51.094;17.002;2022-07-12T05:34:59;5.30;;;3.50;;
323;SDS011;149;51.094;17.002;2022-07-12T05:37:26;6.87;;;2.30;;
323;SDS011;149;51.094;17.002;2022-07-12T05:39:53;4.70;;;2.07;;
323;SDS011;149;51.094;17.002;2022-07-12T05:42:20;4.67;;;2.50;;
323;SDS011;149;51.094;17.002;2022-07-12T05:44:47;8.57;;;2.27;;
323;SDS011;149;51.094;17.002;2022-07-12T05:47:14;1.97;;;1.83;;
323;SDS011;149;51.094;17.002;2022-07-12T05:49:42;5.87;;;2.20;;
323;SDS011;149;51.094;17.002;2022-07-12T05:52:09;2.63;;;1.63;;
323;SDS011;149;51.094;17.002;2022-07-12T05:54:55;2.07;;;1.90;;
323;SDS011;149;51.094;17.002;2022-07-12T05:57:22;2.33;;;2.17;;
323;SDS011;149;51.094;17.002;2022-07-12T05:59:50;6.70;;;2.47;;
323;SDS011;149;51.094;17.002;2022-07-12T06:02:17;6.47;;;2.60;;
323;SDS011;149;51.094;17.002;2022-07-12T06:04:44;3.00;;;2.33;;
323;SDS011;149;51.094;17.002;2022-07-12T06:07:16;7.80;;;2.50;;
323;SDS011;149;51.094;17.002;2022-07-12T06:09:43;2.70;;;2.27;;
323;SDS011;149;51.094;17.002;2022-07-12T06:12:11;2.70;;;2.10;;
323;SDS011;149;51.094;17.002;2022-07-12T06:14:38;3.13;;;1.80;;
323;SDS011;149;51.094;17.002;2022-07-12T06:17:09;3.10;;;2.30;;
323;SDS011;149;51.094;17.002;2022-07-12T06:19:36;3.00;;;2.30;;
323;SDS011;149;51.094;17.002;2022-07-12T06:22:03;2.30;;;2.00;;
323;SDS011;149;51.094;17.002;2022-07-12T06:24:30;3.57;;;3.27;;
323;SDS011;149;51.094;17.002;2022-07-12T06:26:58;1.97;;;1.87;;
323;SDS011;149;51.094;17.002;2022-07-12T06:29:25;5.00;;;2.13;;
323;SDS011;149;51.094;17.002;2022-07-12T06:31:52;3.10;;;1.40;;
323;SDS011;149;51.094;17.002;2022-07-12T06:34:20;2.70;;;1.63;;
323;SDS011;149;51.094;17.002;2022-07-12T06:36:47;2.00;;;1.20;;
323;SDS011;149;51.094;17.002;2022-07-12T06:39:14;1.33;;;1.20;;
323;SDS011;149;51.094;17.002;2022-07-12T06:41:41;1.03;;;1.00;;
323;SDS011;149;51.094;17.002;2022-07-12T06:44:08;2.43;;;1.73;;
323;SDS011;149;51.094;17.002;2022-07-12T06:46:35;2.23;;;1.23;;
323;SDS011;149;51.094;17.002;2022-07-12T06:49:02;1.60;;;1.30;;
323;SDS011;149;51.094;17.002;2022-07-12T06:51:30;4.90;;;1.47;;
323;SDS011;149;51.094;17.002;2022-07-12T06:53:57;2.30;;;1.50;;
323;SDS011;149;51.094;17.002;2022-07-12T06:56:24;1.50;;;1.30;;
323;SDS011;149;51.094;17.002;2022-07-12T06:58:51;2.80;;;1.00;;
323;SDS011;149;51.094;17.002;2022-07-12T07:01:19;4.80;;;1.30;;
323;SDS011;149;51.094;17.002;2022-07-12T07:03:46;2.97;;;1.30;;
323;SDS011;149;51.094;17.002;2022-07-12T07:06:13;2.30;;;0.90;;
323;SDS011;149;51.094;17.002;2022-07-12T07:08:40;1.63;;;1.30;;
323;SDS011;149;51.094;17.002;2022-07-12T07:11:07;1.50;;;1.40;;
323;SDS011;149;51.094;17.002;2022-07-12T07:13:35;0.90;;;0.90;;
323;SDS011;149;51.094;17.002;2022-07-12T07:16:09;1.20;;;1.20;;
323;SDS011;149;51.094;17.002;2022-07-12T07:18:37;0.80;;;0.80;;
323;SDS011;149;51.094;17.002;2022-07-12T07:21:04;5.43;;;1.27;;
323;SDS011;149;51.094;17.002;2022-07-12T07:23:32;0.90;;;0.90;;
323;SDS011;149;51.094;17.002;2022-07-12T07:25:59;3.57;;;1.80;;
323;SDS011;149;51.094;17.002;2022-07-12T07:28:29;2.10;;;1.30;;
323;SDS011;149;51.094;17.002;2022-07-12T07:31:13;2.40;;;1.63;;
323;SDS011;149;51.094;17.002;2022-07-12T07:33:40;2.50;;;1.40;;
323;SDS011;149;51.094;17.002;2022-07-12T07:36:07;1.40;;;1.30;;
323;SDS011;149;51.094;17.002;2022-07-12T07:38:35;0.90;;;0.90;;
323;SDS011;149;51.094;17.002;2022-07-12T07:41:02;1.87;;;1.00;;
323;SDS011;149;51.094;17.002;2022-07-12T07:43:30;4.00;;;1.20;;
323;SDS011;149;51.094;17.002;2022-07-12T07:45:57;1.13;;;1.00;;
323;SDS011;149;51.094;17.002;2022-07-12T07:48:25;0.90;;;0.70;;
323;SDS011;149;51.094;17.002;2022-07-12T07:50:52;0.80;;;0.80;;
323;SDS011;149;51.094;17.002;2022-07-12T07:53:20;2.03;;;0.87;;
323;SDS011;149;51.094;17.002;2022-07-12T07:55:48;0.80;;;0.80;;
323;SDS011;149;51.094;17.002;2022-07-12T07:58:15;2.23;;;1.40;;
323;SDS011;149;51.094;17.002;2022-07-12T08:00:42;1.07;;;0.83;;
323;SDS011;149;51.094;17.002;2022-07-12T08:03:09;1.10;;;0.97;;
323;SDS011;149;51.094;17.002;2022-07-12T08:05:36;1.23;;;0.90;;
323;SDS011;149;51.094;17.002;2022-07-12T08:08:04;2.70;;;1.00;;
323;SDS011;149;51.094;17.002;2022-07-12T08:10:31;0.80;;;0.80;;
323;SDS011;149;51.094;17.002;2022-07-12T08:13:00;1.70;;;1.20;;
323;SDS011;149;51.094;17.002;2022-07-12T08:15:27;5.13;;;1.00;;
323;SDS011;149;51.094;17.002;2022-07-12T08:17:54;1.87;;;1.03;;
323;SDS011;149;51.094;17.002;2022-07-12T08:20:23;1.10;;;1.00;;
323;SDS011;149;51.094;17.002;2022-07-12T08:23:11;6.23;;;1.03;;
323;SDS011;149;51.094;17.002;2022-07-12T08:25:39;3.67;;;0.80;;
323;SDS011;149;51.094;17.002;2022-07-12T08:28:06;17.13;;;1.37;;
323;SDS011;149;51.094;17.002;2022-07-12T08:30:34;2.20;;;0.93;;
323;SDS011;149;51.094;17.002;2022-07-12T08:33:10;1.10;;;1.00;;
323;SDS011;149;51.094;17.002;2022-07-12T08:35:37;1.00;;;0.77;;
323;SDS011;149;51.094;17.002;2022-07-12T08:38:04;0.70;;;0.70;;
323;SDS011;149;51.094;17.002;2022-07-12T08:40:32;1.67;;;1.17;;
323;SDS011;149;51.094;17.002;2022-07-12T08:42:59;0.80;;;0.80;;
323;SDS011;149;51.094;17.002;2022-07-12T08:45:27;1.33;;;1.23;;
323;SDS011;149;51.094;17.002;2022-07-12T08:47:54;0.67;;;0.67;;
323;SDS011;149;51.094;17.002;2022-07-12T08:50:22;3.80;;;1.10;;
323;SDS011;149;51.094;17.002;2022-07-12T08:52:54;1.63;;;0.90;;
323;SDS011;149;51.094;17.002;2022-07-12T08:55:26;0.83;;;0.83;;
323;SDS011;149;51.094;17.002;2022-07-12T08:57:55;1.37;;;0.90;;
323;SDS011;149;51.094;17.002;2022-07-12T09:00:24;0.70;;;0.70;;
323;SDS011;149;51.094;17.002;2022-07-12T09:02:53;1.60;;;0.93;;
323;SDS011;149;51.094;17.002;2022-07-12T09:05:28;0.70;;;0.70;;
323;SDS011;149;51.094;17.002;2022-07-12T09:08:03;1.27;;;0.90;;
323;SDS011;149;51.094;17.002;2022-07-12T09:10:50;0.97;;;0.90;;
323;SDS011;149;51.094;17.002;2022-07-12T09:13:19;1.10;;;0.90;;
323;SDS011;149;51.094;17.002;2022-07-12T09:15:46;1.53;;;1.10;;
323;SDS011;149;51.094;17.002;2022-07-12T09:18:14;1.07;;;0.80;;
323;SDS011;149;51.094;17.002;2022-07-12T09:20:43;1.03;;;0.90;;
323;SDS011;149;51.094;17.002;2022-07-12T09:23:17;1.10;;;1.03;;
323;SDS011;149;51.094;17.002;2022-07-12T09:25:45;1.57;;;1.20;;
323;SDS011;149;51.094;17.002;2022-07-12T09:28:14;2.80;;;1.07;;
323;SDS011;149;51.094;17.002;2022-07-12T09:30:49;1.70;;;1.13;;
323;SDS011;149;51.094;17.002;2022-07-12T09:33:23;0.80;;;0.80;;
323;SDS011;149;51.094;17.002;2022-07-12T09:36:09;0.80;;;0.80;;
323;SDS011;149;51.094;17.002;2022-07-12T09:38:37;1.90;;;0.83;;
323;SDS011;149;51.094;17.002;2022-07-12T09:41:06;1.67;;;1.40;;
323;SDS011;149;51.094;17.002;2022-07-12T09:43:34;1.10;;;1.00;;
323;SDS011;149;51.094;17.002;2022-07-12T09:46:02;1.17;;;0.97;;
323;SDS011;149;51.094;17.002;2022-07-12T09:48:29;0.63;;;0.63;;
323;SDS011;149;51.094;17.002;2022-07-12T09:50:57;0.70;;;0.70;;
323;SDS011;149;51.094;17.002;2022-07-12T09:53:29;1.17;;;1.07;;
323;SDS011;149;51.094;17.002;2022-07-12T09:56:03;1.00;;;0.90;;
323;SDS011;149;51.094;17.002;2022-07-12T09:58:39;1.30;;;1.10;;
323;SDS011;149;51.094;17.002;2022-07-12T10:01:27;1.10;;;0.97;;
323;SDS011;149;51.094;17.002;2022-07-12T10:03:59;2.90;;;0.93;;
323;SDS011;149;51.094;17.002;2022-07-12T10:06:27;1.30;;;1.10;;
323;SDS011;149;51.094;17.002;2022-07-12T10:09:01;1.30;;;1.13;;
323;SDS011;149;51.094;17.002;2022-07-12T10:11:29;1.30;;;1.20;;
323;SDS011;149;51.094;17.002;2022-07-12T10:14:18;5.63;;;0.80;;
323;SDS011;149;51.094;17.002;2022-07-12T10:16:49;1.00;;;0.80;;
323;SDS011;149;51.094;17.002;2022-07-12T10:19:23;1.20;;;1.10;;
323;SDS011;149;51.094;17.002;2022-07-12T10:21:53;1.10;;;1.00;;
323;SDS011;149;51.094;17.002;2022-07-12T10:29:41;2.03;;;0.90;;
323;SDS011;149;51.094;17.002;2022-07-12T10:32:21;0.70;;;0.70;;
323;SDS011;149;51.094;17.002;2022-07-12T10:35:03;1.13;;;0.87;;
323;SDS011;149;51.094;17.002;2022-07-12T10:37:37;1.90;;;1.00;;
323;SDS011;149;51.094;17.002;2022-07-12T10:40:14;1.93;;;1.03;;
323;SDS011;149;51.094;17.002;2022-07-12T10:43:11;1.07;;;0.97;;
323;SDS011;149;51.094;17.002;2022-07-12T10:45:37;0.83;;;0.83;;
323;SDS011;149;51.094;17.002;2022-07-12T10:48:08;0.80;;;0.80;;
323;SDS011;149;51.094;17.002;2022-07-12T10:53:32;1.37;;;1.00;;
323;SDS011;149;51.094;17.002;2022-07-12T10:58:32;0.73;;;0.73;;
323;SDS011;149;51.094;17.002;2022-07-12T11:01:02;1.00;;;0.90;;
323;SDS011;149;51.094;17.002;2022-07-12T11:06:36;1.40;;;1.30;;
323;SDS011;149;51.094;17.002;2022-07-12T11:09:06;1.10;;;1.00;;
323;SDS011;149;51.094;17.002;2022-07-12T11:11:39;1.10;;;1.00;;
323;SDS011;149;51.094;17.002;2022-07-12T11:14:10;1.20;;;1.13;;
323;SDS011;149;51.094;17.002;2022-07-12T11:16:44;2.50;;;1.33;;
323;SDS011;149;51.094;17.002;2022-07-12T11:19:13;2.20;;;0.97;;
323;SDS011;149;51.094;17.002;2022-07-12T11:21:44;2.37;;;0.90;;
323;SDS011;149;51.094;17.002;2022-07-12T11:24:18;2.80;;;0.80;;
323;SDS011;149;51.094;17.002;2022-07-12T11:26:46;0.90;;;0.70;;
323;SDS011;149;51.094;17.002;2022-07-12T11:29:15;2.80;;;0.73;;
323;SDS011;149;51.094;17.002;2022-07-12T11:31:42;3.23;;;1.17;;
323;SDS011;149;51.094;17.002;2022-07-12T11:34:23;1.40;;;1.30;;
323;SDS011;149;51.094;17.002;2022-07-12T11:36:52;4.00;;;1.80;;
323;SDS011;149;51.094;17.002;2022-07-12T11:39:30;0.60;;;0.60;;
323;SDS011;149;51.094;17.002;2022-07-12T11:42:01;0.80;;;0.80;;
323;SDS011;149;51.094;17.002;2022-07-12T11:44:41;0.80;;;0.80;;
323;SDS011;149;51.094;17.002;2022-07-12T11:47:09;0.80;;;0.70;;
323;SDS011;149;51.094;17.002;2022-07-12T11:49:41;3.90;;;1.07;;
323;SDS011;149;51.094;17.002;2022-07-12T11:52:21;1.33;;;0.97;;
323;SDS011;149;51.094;17.002;2022-07-12T11:54:50;2.70;;;1.53;;
323;SDS011;149;51.094;17.002;2022-07-12T11:57:18;1.37;;;1.27;;
323;SDS011;149;51.094;17.002;2022-07-12T11:59:47;0.77;;;0.77;;
323;SDS011;149;51.094;17.002;2022-07-12T12:02:15;1.00;;;1.00;;
323;SDS011;149;51.094;17.002;2022-07-12T12:04:53;1.00;;;0.80;;
323;SDS011;149;51.094;17.002;2022-07-12T12:07:22;2.30;;;1.07;;
323;SDS011;149;51.094;17.002;2022-07-12T12:10:06;1.90;;;1.20;;
323;SDS011;149;51.094;17.002;2022-07-12T12:15:19;2.00;;;1.00;;
323;SDS011;149;51.094;17.002;2022-07-12T12:20:17;3.23;;;1.17;;
323;SDS011;149;51.094;17.002;2022-07-12T12:22:48;0.80;;;0.80;;
323;SDS011;149;51.094;17.002;2022-07-12T12:25:23;1.07;;;0.97;;
323;SDS011;149;51.094;17.002;2022-07-12T12:27:57;0.80;;;0.80;;
323;SDS011;149;51.094;17.002;2022-07-12T12:30:50;0.97;;;0.97;;
323;SDS011;149;51.094;17.002;2022-07-12T12:38:41;2.50;;;1.57;;
323;SDS011;149;51.094;17.002;2022-07-12T12:41:09;0.60;;;0.60;;
323;SDS011;149;51.094;17.002;2022-07-12T12:43:37;1.07;;;1.07;;
323;SDS011;149;51.094;17.002;2022-07-12T12:46:05;0.70;;;0.70;;
323;SDS011;149;51.094;17.002;2022-07-12T12:48:33;1.10;;;0.80;;
323;SDS011;149;51.094;17.002;2022-07-12T12:51:05;0.57;;;0.57;;
323;SDS011;149;51.094;17.002;2022-07-12T12:53:34;2.40;;;0.90;;
323;SDS011;149;51.094;17.002;2022-07-12T12:56:13;1.23;;;1.23;;
323;SDS011;149;51.094;17.002;2022-07-12T12:58:41;0.70;;;0.70;;
323;SDS011;149;51.094;17.002;2022-07-12T13:01:09;0.97;;;0.87;;
323;SDS011;149;51.094;17.002;2022-07-12T13:03:36;0.50;;;0.50;;
323;SDS011;149;51.094;17.002;2022-07-12T13:06:03;2.13;;;1.10;;
323;SDS011;149;51.094;17.002;2022-07-12T13:08:31;0.70;;;0.70;;
323;SDS011;149;51.094;17.002;2022-07-12T13:10:59;1.00;;;0.90;;
323;SDS011;149;51.094;17.002;2022-07-12T13:13:45;1.13;;;1.03;;
323;SDS011;149;51.094;17.002;2022-07-12T13:16:12;1.07;;;0.97;;
323;SDS011;149;51.094;17.002;2022-07-12T13:18:39;1.43;;;0.90;;
323;SDS011;149;51.094;17.002;2022-07-12T13:21:07;0.60;;;0.60;;
323;SDS011;149;51.094;17.002;2022-07-12T13:23:34;1.10;;;1.00;;
323;SDS011;149;51.094;17.002;2022-07-12T13:26:01;0.93;;;0.63;;
323;SDS011;149;51.094;17.002;2022-07-12T13:28:28;0.87;;;0.63;;
323;SDS011;149;51.094;17.002;2022-07-12T13:30:56;1.30;;;0.77;;
323;SDS011;149;51.094;17.002;2022-07-12T13:33:23;1.63;;;0.80;;
323;SDS011;149;51.094;17.002;2022-07-12T13:35:50;1.93;;;0.60;;
323;SDS011;149;51.094;17.002;2022-07-12T13:38:17;2.93;;;0.80;;
323;SDS011;149;51.094;17.002;2022-07-12T13:40:45;0.73;;;0.60;;
323;SDS011;149;51.094;17.002;2022-07-12T13:43:12;0.80;;;0.80;;
323;SDS011;149;51.094;17.002;2022-07-12T13:45:39;0.77;;;0.77;;
323;SDS011;149;51.094;17.002;2022-07-12T13:48:10;1.00;;;0.93;;
323;SDS011;149;51.094;17.002;2022-07-12T13:50:41;1.47;;;1.00;;
323;SDS011;149;51.094;17.002;2022-07-12T13:53:28;0.97;;;0.87;;
323;SDS011;149;51.094;17.002;2022-07-12T13:55:55;0.73;;;0.73;;
323;SDS011;149;51.094;17.002;2022-07-12T13:58:23;1.60;;;1.13;;
323;SDS011;149;51.094;17.002;2022-07-12T14:00:50;1.23;;;0.90;;
323;SDS011;149;51.094;17.002;2022-07-12T14:03:17;0.80;;;0.80;;
323;SDS011;149;51.094;17.002;2022-07-12T14:05:44;1.00;;;0.90;;
323;SDS011;149;51.094;17.002;2022-07-12T14:08:11;1.40;;;0.90;;
323;SDS011;149;51.094;17.002;2022-07-12T14:10:39;0.70;;;0.70;;
323;SDS011;149;51.094;17.002;2022-07-12T14:13:07;0.80;;;0.80;;
323;SDS011;149;51.094;17.002;2022-07-12T14:15:34;1.00;;;0.90;;
323;SDS011;149;51.094;17.002;2022-07-12T14:18:05;0.60;;;0.60;;
323;SDS011;149;51.094;17.002;2022-07-12T14:20:34;0.70;;;0.70;;
323;SDS011;149;51.094;17.002;2022-07-12T14:23:03;2.03;;;1.30;;
323;SDS011;149;51.094;17.002;2022-07-12T14:25:33;0.70;;;0.70;;
323;SDS011;149;51.094;17.002;2022-07-12T14:28:00;1.33;;;0.70;;
323;SDS011;149;51.094;17.002;2022-07-12T14:30:27;1.93;;;0.83;;
323;SDS011;149;51.094;17.002;2022-07-12T14:32:55;1.10;;;0.80;;
323;SDS011;149;51.094;17.002;2022-07-12T14:35:22;1.57;;;1.33;;
323;SDS011;149;51.094;17.002;2022-07-12T14:37:50;0.60;;;0.60;;
323;SDS011;149;51.094;17.002;2022-07-12T14:40:17;2.30;;;1.17;;
323;SDS011;149;51.094;17.002;2022-07-12T14:42:45;1.33;;;1.10;;
323;SDS011;149;51.094;17.002;2022-07-12T14:45:12;0.97;;;0.87;;
323;SDS011;149;51.094;17.002;2022-07-12T14:47:40;6.10;;;1.47;;
323;SDS011;149;51.094;17.002;2022-07-12T14:50:07;0.70;;;0.70;;
323;SDS011;149;51.094;17.002;2022-07-12T14:52:34;0.70;;;0.70;;
323;SDS011;149;51.094;17.002;2022-07-12T14:55:02;0.60;;;0.60;;
323;SDS011;149;51.094;17.002;2022-07-12T14:57:29;0.70;;;0.70;;
323;SDS011;149;51.094;17.002;2022-07-12T14:59:56;1.50;;;0.93;;
323;SDS011;149;51.094;17.002;2022-07-12T15:02:24;1.00;;;0.80;;
323;SDS011;149;51.094;17.002;2022-07-12T15:04:52;1.33;;;1.23;;
323;SDS011;149;51.094;17.002;2022-07-12T15:07:20;0.77;;;0.77;;
323;SDS011;149;51.094;17.002;2022-07-12T15:09:47;0.90;;;0.90;;
323;SDS011;149;51.094;17.002;2022-07-12T15:12:15;0.80;;;0.80;;
323;SDS011;149;51.094;17.002;2022-07-12T15:14:42;0.93;;;0.83;;
323;SDS011;149;51.094;17.002;2022-07-12T15:17:15;0.70;;;0.67;;
323;SDS011;149;51.094;17.002;2022-07-12T15:19:48;0.67;;;0.50;;
323;SDS011;149;51.094;17.002;2022-07-12T15:22:16;0.70;;;0.70;;
323;SDS011;149;51.094;17.002;2022-07-12T15:24:44;1.03;;;0.93;;
323;SDS011;149;51.094;17.002;2022-07-12T15:27:11;0.60;;;0.60;;
323;SDS011;149;51.094;17.002;2022-07-12T15:29:40;0.90;;;0.90;;
323;SDS011;149;51.094;17.002;2022-07-12T15:32:08;1.30;;;0.87;;
323;SDS011;149;51.094;17.002;2022-07-12T15:34:36;1.07;;;1.00;;
323;SDS011;149;51.094;17.002;2022-07-12T15:37:03;1.57;;;0.87;;
323;SDS011;149;51.094;17.002;2022-07-12T15:39:30;6.83;;;0.90;;
323;SDS011;149;51.094;17.002;2022-07-12T15:41:57;0.90;;;0.90;;
323;SDS011;149;51.094;17.002;2022-07-12T15:44:25;1.33;;;0.70;;
323;SDS011;149;51.094;17.002;2022-07-12T15:46:54;1.10;;;0.87;;
323;SDS011;149;51.094;17.002;2022-07-12T15:49:21;2.60;;;1.03;;
323;SDS011;149;51.094;17.002;2022-07-12T15:51:48;1.73;;;1.13;;
323;SDS011;149;51.094;17.002;2022-07-12T15:54:35;1.10;;;1.00;;
323;SDS011;149;51.094;17.002;2022-07-12T15:57:03;2.77;;;1.03;;
323;SDS011;149;51.094;17.002;2022-07-12T15:59:31;0.70;;;0.70;;
323;SDS011;149;51.094;17.002;2022-07-12T16:01:58;2.10;;;1.10;;
323;SDS011;149;51.094;17.002;2022-07-12T16:04:26;1.50;;;1.00;;
323;SDS011;149;51.094;17.002;2022-07-12T16:06:53;2.03;;;0.90;;